createdAt,value
2019-03-13T00:01:43.130Z,4.60
2019-03-13T00:04:13.195Z,4.60
2019-03-13T00:06:43.261Z,4.70
2019-03-13T00:09:13.440Z,4.70
2019-03-13T00:11:43.559Z,4.60
2019-03-13T00:14:13.653Z,4.50
2019-03-13T00:16:44.123Z,4.50
2019-03-13T00:19:14.202Z,4.50
2019-03-13T00:21:44.252Z,4.50
2019-03-13T00:24:14.715Z,4.50
2019-03-13T00:26:45.002Z,4.60
2019-03-13T00:29:15.086Z,4.60
2019-03-13T00:31:45.211Z,4.60
2019-03-13T00:34:15.261Z,4.60
2019-03-13T00:36:46.530Z,4.70
2019-03-13T00:39:16.651Z,5.00
2019-03-13T00:41:56.167Z,5.00
2019-03-13T00:44:26.324Z,5.00
2019-03-13T00:46:56.492Z,5.00
2019-03-13T00:49:26.631Z,4.90
2019-03-13T00:51:56.768Z,4.90
2019-03-13T00:54:26.797Z,5.00
2019-03-13T00:56:57.129Z,5.00
2019-03-13T00:59:27.258Z,4.90
2019-03-13T01:02:14.553Z,4.90
2019-03-13T01:04:49.938Z,5.00
2019-03-13T01:07:20.259Z,5.10
2019-03-13T01:09:50.455Z,5.10
2019-03-13T01:12:20.565Z,5.10
2019-03-13T01:14:50.757Z,5.10
2019-03-13T01:17:21.183Z,5.00
2019-03-13T01:19:51.274Z,5.00
2019-03-13T01:22:21.348Z,5.00
2019-03-13T01:24:51.437Z,5.10
2019-03-13T01:27:21.539Z,5.10
2019-03-13T01:29:51.611Z,5.30
2019-03-13T01:32:29.799Z,6.40
2019-03-13T01:35:14.201Z,6.20
2019-03-13T01:37:44.330Z,6.10
2019-03-13T01:40:14.674Z,7.50
2019-03-13T01:42:44.766Z,7.80
2019-03-13T01:45:15.189Z,7.80
2019-03-13T01:47:45.326Z,8.10
2019-03-13T01:50:15.591Z,8.20
2019-03-13T01:52:45.659Z,9.00
2019-03-13T01:55:15.807Z,9.20
2019-03-13T01:57:46.025Z,9.40
2019-03-13T02:00:16.959Z,9.90
2019-03-13T02:02:47.382Z,9.70
2019-03-13T02:05:18.470Z,9.80
2019-03-13T02:07:48.498Z,9.80
2019-03-13T02:10:18.635Z,9.90
2019-03-13T02:12:48.843Z,9.60
2019-03-13T02:15:20.174Z,9.60
2019-03-13T02:17:50.381Z,9.60
2019-03-13T02:20:20.537Z,9.60
2019-03-13T02:22:51.660Z,9.50
2019-03-13T02:25:22.050Z,9.50
2019-03-13T02:27:52.451Z,9.50
2019-03-13T02:30:23.587Z,9.30
2019-03-13T02:32:53.708Z,9.40
2019-03-13T02:35:23.832Z,9.30
2019-03-13T02:37:54.048Z,9.20
2019-03-13T02:40:24.447Z,9.30
2019-03-13T02:42:56.205Z,9.00
2019-03-13T02:45:26.422Z,9.20
2019-03-13T02:47:56.491Z,9.00
2019-03-13T02:50:26.907Z,9.00
2019-03-13T02:52:56.925Z,9.10
2019-03-13T02:55:27.047Z,8.80
2019-03-13T02:57:57.152Z,8.70
2019-03-13T03:00:42.287Z,8.70
2019-03-13T03:03:21.907Z,8.50
2019-03-13T03:05:51.985Z,8.30
2019-03-13T03:08:22.105Z,8.00
2019-03-13T03:10:52.236Z,8.00
2019-03-13T03:13:24.124Z,7.80
2019-03-13T03:15:54.199Z,7.60
2019-03-13T03:18:24.820Z,7.30
2019-03-13T03:20:54.932Z,7.20
2019-03-13T03:23:25.073Z,7.10
2019-03-13T03:25:57.708Z,6.90
2019-03-13T03:28:28.086Z,6.40
2019-03-13T03:30:58.136Z,6.50
2019-03-13T03:33:28.274Z,6.50
2019-03-13T03:35:58.840Z,6.30
2019-03-13T03:38:28.923Z,6.30
2019-03-13T03:40:59.159Z,6.20
2019-03-13T03:43:39.931Z,6.20
2019-03-13T03:46:02.981Z,6.10
2019-03-13T03:48:33.105Z,6.10
2019-03-13T03:51:03.285Z,6.10
2019-03-13T03:53:33.534Z,5.90
2019-03-13T03:56:03.748Z,5.90
2019-03-13T03:58:33.893Z,6.00
2019-03-13T04:01:04.025Z,6.00
2019-03-13T04:03:34.408Z,5.90
2019-03-13T04:06:04.461Z,5.90
2019-03-13T04:08:37.833Z,5.90
2019-03-13T04:11:06.998Z,5.80
2019-03-13T04:13:37.201Z,5.70
2019-03-13T04:16:07.576Z,5.70
2019-03-13T04:18:37.937Z,5.70
2019-03-13T04:21:09.194Z,5.60
2019-03-13T04:23:39.265Z,5.60
2019-03-13T04:26:12.551Z,5.50
2019-03-13T04:28:41.169Z,5.50
2019-03-13T04:31:11.453Z,5.60
2019-03-13T04:33:41.591Z,5.50
2019-03-13T04:36:11.738Z,5.50
2019-03-13T04:38:42.159Z,5.50
2019-03-13T04:41:12.326Z,5.40
2019-03-13T04:43:42.523Z,5.40
2019-03-13T04:46:13.488Z,5.40
2019-03-13T04:48:43.647Z,5.30
2019-03-13T04:51:13.740Z,5.20
2019-03-13T04:53:44.001Z,5.20
2019-03-13T04:56:14.174Z,5.20
2019-03-13T04:58:44.262Z,5.00
2019-03-13T05:01:18.127Z,5.10
2019-03-13T05:03:49.945Z,4.90
2019-03-13T05:06:23.500Z,5.00
2019-03-13T05:09:01.462Z,4.90
2019-03-13T05:11:33.385Z,5.00
2019-03-13T05:14:03.505Z,4.80
2019-03-13T05:16:33.646Z,4.90
2019-03-13T05:19:03.675Z,4.80
2019-03-13T05:21:34.617Z,4.90
2019-03-13T05:24:04.952Z,4.90
2019-03-13T05:26:35.494Z,4.90
2019-03-13T05:29:05.557Z,4.90
2019-03-13T05:31:35.634Z,4.90
2019-03-13T05:34:05.683Z,4.90
2019-03-13T05:36:35.830Z,4.90
2019-03-13T05:39:09.376Z,4.90
2019-03-13T05:41:39.693Z,4.70
2019-03-13T05:44:09.830Z,4.90
2019-03-13T05:46:42.466Z,4.90
2019-03-13T05:49:14.835Z,4.80
2019-03-13T05:51:45.065Z,4.60
2019-03-13T05:54:15.396Z,4.80
2019-03-13T05:56:46.689Z,4.70
2019-03-13T05:59:17.415Z,4.70
2019-03-13T06:01:47.567Z,4.80
2019-03-13T06:04:17.752Z,4.70
2019-03-13T06:06:48.000Z,4.90
2019-03-13T06:09:19.184Z,4.70
2019-03-13T06:11:49.541Z,4.70
2019-03-13T06:14:19.623Z,4.70
2019-03-13T06:16:49.741Z,4.70
2019-03-13T06:19:19.872Z,4.60
2019-03-13T06:21:50.055Z,4.60
2019-03-13T06:24:20.356Z,4.60
2019-03-13T06:26:50.439Z,4.50
2019-03-13T06:29:20.613Z,4.50
2019-03-13T06:31:50.702Z,4.50
2019-03-13T06:34:20.922Z,4.50
2019-03-13T06:36:50.998Z,4.40
2019-03-13T06:39:22.324Z,4.40
2019-03-13T06:41:52.591Z,4.40
2019-03-13T06:44:22.775Z,4.30
2019-03-13T06:46:52.916Z,4.30
2019-03-13T06:49:23.089Z,4.30
2019-03-13T06:51:53.317Z,4.20
2019-03-13T06:54:23.690Z,4.10
2019-03-13T06:56:53.755Z,4.00
2019-03-13T06:59:28.767Z,4.00
2019-03-13T07:02:15.957Z,4.00
2019-03-13T07:05:06.390Z,3.90
2019-03-13T07:08:01.834Z,3.80
2019-03-13T07:10:56.924Z,3.60
2019-03-13T07:13:33.670Z,3.50
2019-03-13T07:16:25.885Z,3.50
2019-03-13T07:19:05.671Z,3.50
2019-03-13T07:21:56.031Z,3.50
2019-03-13T07:24:34.179Z,3.60
2019-03-13T07:27:29.139Z,3.60
2019-03-13T07:30:24.510Z,3.70
2019-03-13T07:33:01.295Z,3.80
2019-03-13T07:35:50.464Z,3.80
2019-03-13T07:38:41.024Z,3.90
2019-03-13T07:41:38.363Z,4.00
2019-03-13T07:44:27.772Z,4.10
2019-03-13T07:47:22.838Z,4.20
2019-03-13T07:50:18.114Z,4.20
2019-03-13T07:52:55.457Z,4.20
2019-03-13T07:55:46.606Z,4.20
2019-03-13T07:58:32.928Z,4.30
2019-03-13T08:01:31.281Z,4.30
2019-03-13T08:04:20.408Z,4.30
2019-03-13T08:07:23.802Z,4.40
2019-03-13T08:10:11.874Z,4.40
2019-03-13T08:13:04.046Z,4.50
2019-03-13T08:15:51.952Z,4.60
2019-03-13T08:18:30.802Z,4.60
2019-03-13T08:21:19.929Z,4.90
2019-03-13T08:24:07.310Z,5.00
2019-03-13T08:26:46.397Z,5.10
2019-03-13T08:29:22.696Z,5.30
2019-03-13T08:32:27.000Z,5.20
2019-03-13T08:35:19.015Z,5.30
2019-03-13T08:38:08.296Z,5.40
2019-03-13T08:40:43.524Z,5.50
2019-03-13T08:43:35.916Z,5.80
2019-03-13T08:46:25.248Z,5.90
2019-03-13T08:49:12.432Z,5.90
2019-03-13T08:51:58.155Z,5.90
2019-03-13T08:54:53.295Z,5.80
2019-03-13T08:57:39.369Z,5.80
2019-03-13T09:00:35.406Z,5.90
2019-03-13T09:03:23.385Z,5.90
2019-03-13T09:06:21.458Z,5.90
2019-03-13T09:09:06.754Z,6.00
2019-03-13T09:11:56.178Z,6.10
2019-03-13T09:14:45.693Z,6.10
2019-03-13T09:17:33.855Z,5.90
2019-03-13T09:20:14.774Z,6.00
2019-03-13T09:23:22.438Z,6.10
2019-03-13T09:26:26.957Z,6.20
2019-03-13T09:29:15.003Z,6.50
2019-03-13T09:32:02.341Z,6.90
2019-03-13T09:34:51.462Z,6.60
2019-03-13T09:37:37.007Z,6.50
2019-03-13T09:40:14.481Z,6.40
2019-03-13T09:43:03.706Z,6.80
2019-03-13T09:45:43.405Z,6.80
2019-03-13T09:48:33.901Z,7.00
2019-03-13T09:51:13.631Z,7.00
2019-03-13T09:54:00.433Z,6.60
2019-03-13T09:56:46.597Z,6.90
2019-03-13T09:59:43.612Z,7.00
2019-03-13T10:02:32.829Z,6.90
2019-03-13T10:05:12.632Z,7.00
2019-03-13T10:08:00.303Z,7.20
2019-03-13T10:10:52.267Z,7.30
2019-03-13T10:13:44.425Z,7.40
2019-03-13T10:16:37.719Z,7.10
2019-03-13T10:19:23.816Z,6.90
2019-03-13T10:22:17.999Z,7.40
2019-03-13T10:25:10.663Z,7.00
2019-03-13T10:27:59.612Z,6.70
2019-03-13T10:31:01.086Z,6.70
2019-03-13T10:34:05.502Z,6.70
2019-03-13T10:37:00.492Z,6.60
2019-03-13T10:39:44.765Z,6.70
2019-03-13T10:42:24.505Z,6.70
2019-03-13T10:45:11.997Z,7.10
2019-03-13T10:48:01.103Z,7.30
2019-03-13T10:50:51.178Z,7.80
2019-03-13T10:53:39.096Z,7.30
2019-03-13T10:56:27.758Z,7.60
2019-03-13T10:59:12.017Z,7.10
2019-03-13T11:01:52.196Z,7.60
2019-03-13T11:04:28.420Z,7.70
2019-03-13T11:07:28.661Z,7.80
2019-03-13T11:10:12.574Z,8.00
2019-03-13T11:13:02.150Z,8.40
2019-03-13T11:16:00.248Z,8.30
2019-03-13T11:18:42.638Z,7.90
2019-03-13T11:21:23.798Z,8.00
2019-03-13T11:24:04.799Z,7.70
2019-03-13T11:26:53.971Z,7.60
2019-03-13T11:29:36.370Z,7.60
2019-03-13T11:32:18.528Z,7.40
2019-03-13T11:35:02.403Z,7.30
2019-03-13T11:37:57.530Z,7.20
2019-03-13T11:40:59.907Z,7.00
2019-03-13T11:43:41.089Z,7.10
2019-03-13T11:46:28.738Z,6.90
2019-03-13T11:49:17.926Z,6.10
2019-03-13T11:51:59.658Z,4.40
2019-03-13T11:55:01.385Z,4.10
2019-03-13T11:57:52.544Z,4.40
2019-03-13T12:00:40.810Z,5.00
2019-03-13T12:03:48.048Z,5.30
2019-03-13T12:06:49.338Z,6.00
2019-03-13T12:09:37.891Z,5.90
2019-03-13T12:12:27.402Z,6.30
2019-03-13T12:15:20.827Z,6.60
2019-03-13T12:18:01.013Z,6.50
2019-03-13T12:20:53.150Z,6.30
2019-03-13T12:23:49.281Z,6.50
2019-03-13T12:26:33.408Z,6.60
2019-03-13T12:29:16.152Z,6.80
2019-03-13T12:32:08.364Z,7.00
2019-03-13T12:34:46.749Z,7.60
2019-03-13T12:37:33.420Z,8.00
2019-03-13T12:40:35.444Z,8.40
2019-03-13T12:43:27.822Z,7.80
2019-03-13T12:46:29.343Z,7.00
2019-03-13T12:49:23.973Z,7.20
2019-03-13T12:52:14.235Z,6.70
2019-03-13T12:55:02.978Z,6.60
2019-03-13T12:58:01.394Z,6.70
2019-03-13T13:01:02.798Z,6.50
2019-03-13T13:03:52.108Z,6.60
2019-03-13T13:06:31.482Z,6.70
2019-03-13T13:09:10.900Z,6.80
2019-03-13T13:12:03.237Z,7.20
2019-03-13T13:14:55.563Z,7.20
2019-03-13T13:17:50.899Z,7.10
2019-03-13T13:20:23.905Z,7.60
2019-03-13T13:22:53.299Z,8.30
2019-03-13T13:25:23.371Z,8.30
2019-03-13T13:27:53.783Z,8.40
2019-03-13T13:30:24.108Z,8.40
2019-03-13T13:32:54.214Z,8.20
2019-03-13T13:35:24.466Z,8.20
2019-03-13T13:37:54.668Z,8.50
2019-03-13T13:40:27.528Z,8.50
2019-03-13T13:42:57.766Z,8.30
2019-03-13T13:46:13.544Z,8.60
2019-03-13T13:48:43.707Z,8.50
2019-03-13T13:51:13.833Z,7.90
2019-03-13T13:53:48.039Z,7.80
2019-03-13T13:56:18.253Z,7.80
2019-03-13T13:58:49.996Z,7.20
2019-03-13T14:01:21.239Z,8.20
2019-03-13T14:03:51.541Z,8.20
2019-03-13T14:06:21.751Z,8.40
2019-03-13T14:08:53.268Z,8.20
2019-03-13T14:11:23.656Z,8.50
2019-03-13T14:13:53.750Z,7.60
2019-03-13T14:16:24.609Z,7.40
2019-03-13T14:18:54.661Z,7.10
2019-03-13T14:21:24.851Z,6.90
2019-03-13T14:23:55.302Z,6.70
2019-03-13T14:26:27.665Z,6.40
2019-03-13T14:29:00.730Z,6.00
2019-03-13T14:31:31.744Z,6.40
2019-03-13T14:34:01.954Z,7.60
2019-03-13T14:36:32.511Z,8.10
2019-03-13T14:39:02.778Z,7.90
2019-03-13T14:41:36.836Z,7.80
2019-03-13T14:44:07.242Z,8.20
2019-03-13T14:46:38.672Z,8.00
2019-03-13T14:49:08.929Z,8.10
2019-03-13T14:51:39.327Z,8.20
2019-03-13T14:54:09.471Z,8.40
2019-03-13T14:56:39.673Z,8.30
2019-03-13T14:59:11.925Z,8.60
2019-03-13T15:01:43.176Z,7.30
2019-03-13T15:04:13.498Z,6.90
2019-03-13T15:06:43.594Z,7.10
2019-03-13T15:09:14.876Z,6.20
2019-03-13T15:11:44.997Z,6.00
2019-03-13T15:14:23.434Z,5.90
2019-03-13T15:16:53.732Z,5.70
2019-03-13T15:19:23.919Z,5.30
2019-03-13T15:21:54.077Z,4.80
2019-03-13T15:24:24.156Z,4.70
2019-03-13T15:26:56.191Z,5.50
2019-03-13T15:29:26.342Z,5.80
2019-03-13T15:31:56.630Z,5.20
2019-03-13T15:34:26.809Z,5.10
2019-03-13T15:36:56.926Z,4.80
2019-03-13T15:39:26.991Z,5.00
2019-03-13T15:41:57.198Z,5.40
2019-03-13T15:44:30.281Z,6.10
2019-03-13T15:47:00.607Z,5.80
2019-03-13T15:49:32.223Z,5.40
2019-03-13T15:52:02.365Z,5.20
2019-03-13T15:54:33.199Z,4.90
2019-03-13T15:57:03.420Z,4.90
2019-03-13T15:59:33.788Z,5.00
2019-03-13T16:02:03.911Z,5.80
2019-03-13T16:04:35.193Z,6.20
2019-03-13T16:07:05.284Z,6.50
2019-03-13T16:09:35.365Z,6.30
2019-03-13T16:12:05.803Z,6.30
2019-03-13T16:14:35.869Z,6.30
2019-03-13T16:17:06.446Z,6.20
2019-03-13T16:19:36.901Z,6.40
2019-03-13T16:22:08.261Z,6.00
2019-03-13T16:24:38.448Z,6.50
2019-03-13T16:27:08.844Z,6.00
2019-03-13T16:29:40.424Z,5.90
2019-03-13T16:32:12.229Z,5.90
2019-03-13T16:34:42.306Z,5.60
2019-03-13T16:37:12.403Z,5.50
2019-03-13T16:39:42.595Z,5.40
2019-03-13T16:42:12.901Z,5.30
2019-03-13T16:44:43.100Z,5.30
2019-03-13T16:47:13.316Z,5.40
2019-03-13T16:49:44.891Z,5.30
2019-03-13T16:52:15.064Z,5.30
2019-03-13T16:54:45.143Z,5.30
2019-03-13T16:57:15.444Z,5.30
2019-03-13T16:59:45.624Z,5.40
2019-03-13T17:02:17.372Z,5.30
2019-03-13T17:04:48.528Z,5.30
2019-03-13T17:07:18.770Z,5.30
2019-03-13T17:09:49.218Z,5.30
2019-03-13T17:12:19.618Z,5.30
2019-03-13T17:14:49.976Z,4.60
2019-03-13T17:17:22.730Z,4.70
2019-03-13T17:19:53.034Z,4.60
2019-03-13T17:22:23.228Z,4.70
2019-03-13T17:24:54.380Z,4.70
2019-03-13T17:27:27.488Z,4.60
2019-03-13T17:29:57.604Z,4.70
2019-03-13T17:32:27.724Z,4.60
2019-03-13T17:34:58.012Z,4.50
2019-03-13T17:37:28.351Z,4.60
2019-03-13T17:39:58.447Z,4.60
2019-03-13T17:42:28.560Z,4.50
2019-03-13T17:45:00.656Z,4.50
2019-03-13T17:47:30.805Z,4.50
2019-03-13T17:50:01.054Z,4.40
2019-03-13T17:52:31.397Z,4.40
2019-03-13T17:55:01.512Z,4.40
2019-03-13T17:57:31.672Z,4.20
2019-03-13T18:00:01.890Z,4.30
2019-03-13T18:02:33.430Z,4.20
2019-03-13T18:05:03.779Z,4.30
2019-03-13T18:07:36.705Z,4.30
2019-03-13T18:10:09.968Z,4.30
2019-03-13T18:12:40.494Z,4.30
2019-03-13T18:15:10.731Z,4.20
2019-03-13T18:17:40.811Z,4.10
2019-03-13T18:20:13.127Z,4.20
2019-03-13T18:22:43.667Z,4.00
2019-03-13T18:25:17.872Z,4.00
2019-03-13T18:27:46.655Z,4.10
2019-03-13T18:30:20.422Z,4.00
2019-03-13T18:32:51.491Z,4.00
2019-03-13T18:35:22.623Z,3.90
2019-03-13T18:37:52.770Z,3.90
2019-03-13T18:40:22.871Z,3.90
2019-03-13T18:42:53.442Z,3.90
2019-03-13T18:45:24.611Z,3.80
2019-03-13T18:47:56.190Z,3.80
2019-03-13T18:50:26.723Z,3.60
2019-03-13T18:52:56.947Z,3.70
2019-03-13T18:55:27.099Z,3.50
2019-03-13T18:57:57.426Z,3.40
2019-03-13T19:00:29.966Z,3.50
2019-03-13T19:03:00.050Z,3.30
2019-03-13T19:05:31.665Z,3.20
2019-03-13T19:08:01.810Z,3.30
2019-03-13T19:10:33.465Z,3.20
2019-03-13T19:13:03.927Z,3.40
2019-03-13T19:15:34.064Z,3.30
2019-03-13T19:18:04.988Z,3.20
2019-03-13T19:20:35.116Z,3.30
2019-03-13T19:23:05.489Z,3.30
2019-03-13T19:25:35.753Z,3.40
2019-03-13T19:28:05.845Z,3.40
2019-03-13T19:30:37.927Z,3.40
2019-03-13T19:33:08.606Z,3.30
2019-03-13T19:35:38.725Z,3.20
2019-03-13T19:38:09.416Z,3.20
2019-03-13T19:40:39.727Z,3.20
2019-03-13T19:43:10.133Z,3.20
2019-03-13T19:45:41.709Z,3.30
2019-03-13T19:48:13.308Z,3.30
2019-03-13T19:50:44.025Z,3.40
2019-03-13T19:53:14.263Z,3.40
2019-03-13T19:55:44.786Z,3.50
2019-03-13T19:58:15.125Z,3.60
2019-03-13T20:00:49.614Z,3.70
2019-03-13T20:03:19.901Z,3.80
2019-03-13T20:05:50.100Z,3.80
2019-03-13T20:08:20.223Z,3.90
2019-03-13T20:10:50.670Z,3.90
2019-03-13T20:13:20.929Z,4.00
2019-03-13T20:15:50.962Z,4.00
2019-03-13T20:18:21.049Z,4.10
2019-03-13T20:20:51.237Z,4.10
2019-03-13T20:23:21.399Z,4.20
2019-03-13T20:25:51.831Z,4.20
2019-03-13T20:28:23.170Z,4.10
2019-03-13T20:30:53.455Z,4.10
2019-03-13T20:33:25.670Z,4.10
2019-03-13T20:35:55.949Z,4.10
2019-03-13T20:38:26.268Z,4.30
2019-03-13T20:40:56.760Z,4.20
2019-03-13T20:43:27.026Z,4.30
2019-03-13T20:45:57.103Z,4.30
2019-03-13T20:48:27.336Z,4.20
2019-03-13T20:50:57.529Z,4.30
2019-03-13T20:53:28.297Z,4.20
2019-03-13T20:55:59.145Z,4.20
2019-03-13T20:58:29.528Z,4.20
2019-03-13T21:00:59.914Z,4.20
2019-03-13T21:03:30.032Z,4.20
2019-03-13T21:06:00.887Z,4.30
2019-03-13T21:08:32.969Z,4.50
2019-03-13T21:11:03.089Z,4.60
2019-03-13T21:13:33.987Z,4.50
2019-03-13T21:16:04.191Z,4.50
2019-03-13T21:18:34.596Z,4.20
2019-03-13T21:21:06.032Z,4.10
2019-03-13T21:23:36.362Z,4.10
2019-03-13T21:26:06.500Z,4.10
2019-03-13T21:28:37.528Z,4.00
2019-03-13T21:31:09.144Z,4.10
2019-03-13T21:33:39.398Z,3.90
2019-03-13T21:36:09.932Z,3.90
2019-03-13T21:38:40.096Z,3.90
2019-03-13T21:41:10.228Z,3.70
2019-03-13T21:43:40.320Z,3.70
2019-03-13T21:46:10.475Z,3.60
2019-03-13T21:48:40.560Z,3.50
2019-03-13T21:51:10.725Z,3.50
2019-03-13T21:53:41.267Z,3.50
2019-03-13T21:56:11.458Z,3.40
2019-03-13T21:58:41.697Z,3.30
2019-03-13T22:01:19.775Z,3.30
2019-03-13T22:03:44.080Z,3.40
2019-03-13T22:06:14.226Z,3.40
2019-03-13T22:08:46.580Z,3.40
2019-03-13T22:11:16.838Z,3.60
2019-03-13T22:13:48.168Z,3.70
2019-03-13T22:16:18.269Z,3.70
2019-03-13T22:18:48.374Z,3.80
2019-03-13T22:21:18.435Z,3.70
2019-03-13T22:23:48.587Z,3.70
2019-03-13T22:26:18.722Z,3.80
2019-03-13T22:28:48.944Z,3.70
2019-03-13T22:31:19.437Z,3.80
2019-03-13T22:33:49.556Z,3.90
2019-03-13T22:36:20.007Z,3.70
2019-03-13T22:38:50.581Z,3.60
2019-03-13T22:41:20.938Z,3.60
2019-03-13T22:43:51.038Z,3.60
2019-03-13T22:46:21.196Z,3.50
2019-03-13T22:48:58.217Z,3.60
2019-03-13T22:51:23.565Z,3.70
2019-03-13T22:53:53.662Z,3.60
2019-03-13T22:56:23.871Z,3.60
2019-03-13T22:58:53.917Z,3.50
2019-03-13T23:01:24.618Z,3.50
2019-03-13T23:03:54.946Z,3.50
2019-03-13T23:06:25.373Z,3.40
2019-03-13T23:08:55.494Z,3.40
2019-03-13T23:11:25.598Z,3.40
2019-03-13T23:13:55.742Z,3.40
2019-03-13T23:16:25.842Z,3.50
2019-03-13T23:18:56.127Z,3.50
2019-03-13T23:21:26.476Z,3.50
2019-03-13T23:23:56.532Z,3.50
2019-03-13T23:26:26.624Z,3.50
2019-03-13T23:28:56.841Z,3.50
2019-03-13T23:31:27.608Z,3.60
2019-03-13T23:33:58.938Z,3.60
2019-03-13T23:36:29.242Z,3.60
2019-03-13T23:38:59.482Z,3.60
2019-03-13T23:41:29.714Z,3.60
2019-03-13T23:43:59.838Z,3.60
2019-03-13T23:46:30.111Z,3.60
2019-03-13T23:49:00.312Z,3.60
2019-03-13T23:51:30.618Z,3.60
2019-03-13T23:54:00.814Z,3.70
2019-03-13T23:56:30.969Z,3.60
2019-03-13T23:59:01.189Z,3.50
